Time;durP1;ratioP1;P1;durP2;ratioP2;P2;SDS_P1;SDS_P2;PMS_P1;PMS_P2;Temp;Humidity;BMP_temperature;BMP_pressure;BME280_temperature;BME280_humidity;BME280_pressure;Samples;Min_cycle;Max_cycle;Signal;HPM_P1;HPM_P2
2021/11/27 00:00:20;;;;;;;2.40;0.57;;;19.50;56.60;;;;;;6140228;23;87375;-79
2021/11/27 00:02:46;;;;;;;1.17;0.60;;;19.50;56.60;;;;;;6140469;22;87265;-79
2021/11/27 00:05:13;;;;;;;2.08;0.60;;;19.50;56.50;;;;;;6139144;23;87592;-80
2021/11/27 00:07:42;;;;;;;3.22;0.52;;;19.50;56.50;;;;;;6139629;22;89608;-80
2021/11/27 00:10:15;;;;;;;1.75;0.77;;;19.50;56.50;;;;;;6138617;22;89202;-80
2021/11/27 00:12:42;;;;;;;1.58;0.60;;;19.50;56.50;;;;;;6139667;23;87316;-80
2021/11/27 00:15:12;;;;;;;1.08;0.40;;;19.50;56.50;;;;;;6112649;23;87830;-80
2021/11/27 00:17:38;;;;;;;1.38;0.47;;;19.50;56.50;;;;;;6139777;23;88120;-80
2021/11/27 00:20:10;;;;;;;2.58;0.82;;;19.50;56.50;;;;;;6139637;22;88409;-81
2021/11/27 00:22:36;;;;;;;1.58;0.68;;;19.50;56.50;;;;;;6112655;23;87838;-80
2021/11/27 00:25:06;;;;;;;1.25;0.50;;;19.50;56.50;;;;;;6128654;23;86337;-79
2021/11/27 00:27:32;;;;;;;6.50;1.17;;;19.50;56.60;;;;;;6127550;23;87748;-80
2021/11/27 00:30:00;;;;;;;1.65;0.68;;;19.50;56.60;;;;;;6127072;23;87607;-80
2021/11/27 00:32:26;;;;;;;1.65;0.50;;;19.50;56.50;;;;;;6128871;23;87970;-81
2021/11/27 00:34:53;;;;;;;1.10;0.40;;;19.50;56.50;;;;;;6128392;23;87515;-80
2021/11/27 00:37:19;;;;;;;1.40;0.50;;;19.50;56.60;;;;;;6129719;23;90255;-79
2021/11/27 00:39:47;;;;;;;0.95;0.40;;;19.40;56.50;;;;;;6129811;23;87171;-80
2021/11/27 00:42:14;;;;;;;1.50;0.50;;;19.40;56.60;;;;;;6128855;23;87605;-80
2021/11/27 00:44:41;;;;;;;0.77;0.30;;;19.40;56.50;;;;;;6126891;23;88102;-80
2021/11/27 00:47:07;;;;;;;0.80;0.50;;;19.40;56.60;;;;;;6127462;23;87423;-80
2021/11/27 00:49:34;;;;;;;0.88;0.22;;;19.40;56.60;;;;;;6125613;23;87097;-79
2021/11/27 00:52:04;;;;;;;0.73;0.40;;;19.40;56.60;;;;;;6128751;23;87555;-80
2021/11/27 00:54:37;;;;;;;2.83;0.40;;;19.40;56.60;;;;;;6125538;23;87177;-79
2021/11/27 00:57:03;;;;;;;1.10;0.45;;;19.40;56.60;;;;;;6126068;23;89047;-79
2021/11/27 00:59:30;;;;;;;2.22;0.50;;;19.40;56.60;;;;;;6126863;23;87263;-80
2021/11/27 01:01:56;;;;;;;2.13;0.45;;;19.40;56.60;;;;;;6126010;23;87264;-80
2021/11/27 01:04:23;;;;;;;1.02;0.50;;;19.40;56.60;;;;;;6127290;23;87980;-80
2021/11/27 01:06:49;;;;;;;2.40;0.40;;;19.40;56.60;;;;;;6127045;23;90318;-80
2021/11/27 01:09:15;;;;;;;0.60;0.40;;;19.40;56.60;;;;;;6128995;22;88567;-79
2021/11/27 01:11:48;;;;;;;1.05;0.40;;;19.40;56.60;;;;;;6128036;23;87704;-80
2021/11/27 01:14:19;;;;;;;0.98;0.43;;;19.40;56.60;;;;;;6128607;23;87454;-79
2021/11/27 01:16:52;;;;;;;1.95;0.50;;;19.30;56.60;;;;;;6128947;23;87515;-79
2021/11/27 01:19:19;;;;;;;1.88;0.40;;;19.30;56.60;;;;;;6129157;22;87494;-79
2021/11/27 01:21:50;;;;;;;1.08;0.40;;;19.40;56.60;;;;;;6129530;23;88566;-80
2021/11/27 01:24:18;;;;;;;1.27;0.50;;;19.30;56.60;;;;;;6128939;23;87034;-80
2021/11/27 01:26:45;;;;;;;0.65;0.40;;;19.30;56.60;;;;;;6127773;23;87169;-80
2021/11/27 01:29:14;;;;;;;0.98;0.40;;;19.30;56.60;;;;;;6127413;22;90216;-80
2021/11/27 01:31:42;;;;;;;1.05;0.40;;;19.30;56.70;;;;;;6128990;23;87884;-79
2021/11/27 01:34:11;;;;;;;0.55;0.40;;;19.30;56.70;;;;;;6105050;23;89627;-80
2021/11/27 01:36:36;;;;;;;1.25;0.40;;;19.30;56.70;;;;;;6129419;23;90486;-79
2021/11/27 01:39:09;;;;;;;0.55;0.40;;;19.30;56.70;;;;;;6131395;22;88664;-80
2021/11/27 01:41:40;;;;;;;1.75;0.30;;;19.20;56.70;;;;;;6130490;23;87488;-79
2021/11/27 01:44:09;;;;;;;0.80;0.40;;;19.20;56.70;;;;;;6129844;23;89414;-79
2021/11/27 01:46:38;;;;;;;1.00;0.47;;;19.20;56.70;;;;;;6128659;23;89712;-79
2021/11/27 01:49:10;;;;;;;0.93;0.47;;;19.20;56.70;;;;;;6106080;23;90970;-79
2021/11/27 01:51:40;;;;;;;1.20;0.30;;;19.20;56.70;;;;;;6130017;23;87127;-80
2021/11/27 01:54:09;;;;;;;0.63;0.40;;;19.20;56.70;;;;;;6130332;23;88222;-79
2021/11/27 01:56:49;;;;;;;0.70;0.40;;;19.20;56.80;;;;;;6128977;23;89414;-80
2021/11/27 01:59:16;;;;;;;0.30;0.30;;;19.20;56.80;;;;;;6130202;22;90456;-80
2021/11/27 02:01:42;;;;;;;1.23;0.40;;;19.20;56.80;;;;;;6106342;23;87510;-80
2021/11/27 02:04:10;;;;;;;1.75;0.40;;;19.20;56.80;;;;;;6132034;23;88061;-79
2021/11/27 02:06:37;;;;;;;0.95;0.40;;;19.20;56.80;;;;;;6129674;23;89092;-80
2021/11/27 02:09:12;;;;;;;1.05;0.50;;;19.20;56.80;;;;;;6130627;22;87563;-79
2021/11/27 02:11:38;;;;;;;0.75;0.40;;;19.10;56.80;;;;;;6131997;23;88111;-80
2021/11/27 02:14:10;;;;;;;0.93;0.50;;;19.20;56.80;;;;;;6132334;23;89281;-79
2021/11/27 02:16:38;;;;;;;0.52;0.25;;;19.10;56.80;;;;;;6133028;22;87742;-79
2021/11/27 02:19:04;;;;;;;0.82;0.40;;;19.20;56.80;;;;;;6133430;23;89119;-79
2021/11/27 02:21:30;;;;;;;0.70;0.50;;;19.10;56.80;;;;;;6133587;22;87384;-79
2021/11/27 02:23:56;;;;;;;0.82;0.40;;;19.10;56.80;;;;;;6133516;23;87455;-80
2021/11/27 02:26:26;;;;;;;0.98;0.30;;;19.10;56.80;;;;;;6132236;23;90880;-79
2021/11/27 02:28:59;;;;;;;0.57;0.30;;;19.10;56.80;;;;;;6133576;22;87390;-79
2021/11/27 02:31:27;;;;;;;0.40;0.30;;;19.10;56.80;;;;;;6131052;23;87130;-79
2021/11/27 02:33:57;;;;;;;2.33;0.30;;;19.10;56.80;;;;;;6130126;23;87995;-79
2021/11/27 02:36:28;;;;;;;0.32;0.30;;;19.10;56.80;;;;;;6132883;23;89769;-80
2021/11/27 02:38:56;;;;;;;1.35;0.30;;;19.10;56.90;;;;;;6133342;22;87461;-79
2021/11/27 02:41:23;;;;;;;1.30;0.50;;;19.10;56.90;;;;;;6135294;23;87070;-79
2021/11/27 02:43:50;;;;;;;0.40;0.30;;;19.10;56.90;;;;;;6130981;23;87443;-80
2021/11/27 02:46:16;;;;;;;0.93;0.40;;;19.10;56.90;;;;;;6136625;23;87433;-79
2021/11/27 02:48:42;;;;;;;1.40;0.70;;;19.00;56.80;;;;;;6107685;23;89565;-79
2021/11/27 02:51:09;;;;;;;0.80;0.30;;;19.00;56.90;;;;;;6132515;23;86973;-79
2021/11/27 02:53:36;;;;;;;1.17;0.50;;;19.00;56.90;;;;;;6133062;23;87551;-79
2021/11/27 02:56:13;;;;;;;0.82;0.40;;;19.00;56.90;;;;;;6134629;23;87778;-79
2021/11/27 02:58:39;;;;;;;0.43;0.30;;;19.00;56.90;;;;;;6134562;22;87444;-79
2021/11/27 03:01:18;;;;;;;1.17;0.40;;;19.00;56.90;;;;;;6131778;23;88835;-80
2021/11/27 03:03:46;;;;;;;1.95;0.30;;;19.00;57.00;;;;;;6134895;22;87627;-79
2021/11/27 03:06:14;;;;;;;0.77;0.30;;;19.00;57.00;;;;;;6133009;23;87803;-79
2021/11/27 03:08:43;;;;;;;1.10;0.30;;;19.00;57.50;;;;;;6132951;22;89708;-79
2021/11/27 03:11:10;;;;;;;1.35;0.45;;;19.00;57.00;;;;;;6134701;22;87015;-78
2021/11/27 03:13:39;;;;;;;1.73;0.32;;;18.90;57.00;;;;;;6132168;23;87956;-80
2021/11/27 03:16:05;;;;;;;0.93;0.38;;;19.00;57.10;;;;;;6132147;23;86696;-79
2021/11/27 03:18:31;;;;;;;0.80;0.30;;;18.90;57.10;;;;;;6132485;23;86584;-79
2021/11/27 03:20:57;;;;;;;0.52;0.30;;;18.90;57.10;;;;;;6132389;23;87342;-80
2021/11/27 03:23:26;;;;;;;0.60;0.35;;;18.90;57.10;;;;;;6133365;23;89346;-80
2021/11/27 03:25:53;;;;;;;0.95;0.40;;;18.90;57.10;;;;;;6131204;23;89586;-79
2021/11/27 03:28:19;;;;;;;1.10;0.30;;;18.90;57.20;;;;;;6132675;23;87563;-80
2021/11/27 03:30:48;;;;;;;1.42;0.32;;;18.90;57.20;;;;;;6133179;23;87057;-80
2021/11/27 03:33:15;;;;;;;0.47;0.38;;;18.90;57.20;;;;;;6134988;23;87665;-79
2021/11/27 03:35:41;;;;;;;0.50;0.30;;;18.90;57.20;;;;;;6133286;23;87844;-79
2021/11/27 03:38:08;;;;;;;0.60;0.30;;;18.90;57.20;;;;;;6132417;23;89983;-79
2021/11/27 03:40:33;;;;;;;0.40;0.30;;;18.90;57.20;;;;;;6139453;22;87635;-64
2021/11/27 03:43:00;;;;;;;0.75;0.40;;;18.80;57.20;;;;;;6148541;22;86335;-65
2021/11/27 03:45:26;;;;;;;0.50;0.32;;;18.80;57.30;;;;;;6148732;22;88056;-65
2021/11/27 03:48:00;;;;;;;0.63;0.30;;;18.80;57.30;;;;;;6147348;22;90608;-65
2021/11/27 03:50:32;;;;;;;0.73;0.20;;;18.80;57.30;;;;;;6146943;22;88826;-68
2021/11/27 03:52:58;;;;;;;1.23;0.30;;;18.80;57.30;;;;;;6148591;22;87490;-64
2021/11/27 03:55:24;;;;;;;0.40;0.30;;;18.80;57.30;;;;;;6146502;22;87951;-71
2021/11/27 03:57:49;;;;;;;0.68;0.25;;;18.80;57.80;;;;;;6146513;22;90622;-64
2021/11/27 04:00:18;;;;;;;0.40;0.30;;;18.80;57.30;;;;;;6147484;22;87400;-66
2021/11/27 04:02:44;;;;;;;1.02;0.52;;;18.80;57.30;;;;;;6148932;22;87398;-66
2021/11/27 04:05:09;;;;;;;0.45;0.30;;;18.80;57.40;;;;;;6148503;22;88058;-64
2021/11/27 04:07:35;;;;;;;0.40;0.30;;;18.80;57.40;;;;;;6149483;22;87733;-64
2021/11/27 04:10:01;;;;;;;1.00;0.30;;;18.80;57.40;;;;;;6150488;22;87836;-64
2021/11/27 04:12:26;;;;;;;0.22;0.20;;;18.80;57.40;;;;;;6149879;22;87438;-65
2021/11/27 04:14:52;;;;;;;0.68;0.40;;;18.80;57.40;;;;;;6148284;22;87973;-71
2021/11/27 04:17:18;;;;;;;0.45;0.30;;;18.80;57.50;;;;;;6149106;22;88794;-66
2021/11/27 04:19:43;;;;;;;0.50;0.30;;;18.70;57.40;;;;;;6149388;22;88625;-70
2021/11/27 04:22:09;;;;;;;0.80;0.20;;;18.70;57.40;;;;;;6150585;22;87554;-64
2021/11/27 04:24:36;;;;;;;0.30;0.20;;;18.70;57.90;;;;;;6149979;22;88054;-64
2021/11/27 04:27:02;;;;;;;0.47;0.30;;;18.70;57.40;;;;;;6150349;22;87803;-67
2021/11/27 04:29:31;;;;;;;0.95;0.30;;;18.70;57.40;;;;;;6150651;22;87168;-64
2021/11/27 04:31:57;;;;;;;0.70;0.30;;;18.70;57.50;;;;;;6150467;22;86925;-67
2021/11/27 04:34:22;;;;;;;0.57;0.40;;;18.70;57.50;;;;;;6148582;22;88146;-69
2021/11/27 04:36:48;;;;;;;0.77;0.30;;;18.70;57.50;;;;;;6149345;22;87719;-67
2021/11/27 04:39:14;;;;;;;0.25;0.20;;;18.70;57.50;;;;;;6149021;22;88753;-64
2021/11/27 04:41:39;;;;;;;1.35;0.30;;;18.60;57.40;;;;;;6149281;22;87541;-67
2021/11/27 04:44:05;;;;;;;0.95;0.30;;;18.70;57.50;;;;;;6149697;22;88132;-69
2021/11/27 04:46:31;;;;;;;0.40;0.30;;;18.70;57.50;;;;;;6149831;22;87884;-68
2021/11/27 04:48:56;;;;;;;0.50;0.30;;;18.70;57.50;;;;;;6149049;22;87676;-65
2021/11/27 04:51:22;;;;;;;1.55;0.45;;;18.70;57.60;;;;;;6149658;22;87297;-68
2021/11/27 04:53:48;;;;;;;0.45;0.30;;;18.60;57.50;;;;;;6149472;22;88055;-67
2021/11/27 04:56:13;;;;;;;0.52;0.30;;;18.60;57.50;;;;;;6150432;22;87738;-70
2021/11/27 04:58:39;;;;;;;1.45;0.30;;;18.60;57.50;;;;;;6150281;22;87117;-67
2021/11/27 05:01:05;;;;;;;0.70;0.28;;;18.60;57.50;;;;;;6148802;22;90047;-65
2021/11/27 05:03:30;;;;;;;0.95;0.30;;;18.60;57.60;;;;;;6147966;22;91031;-63
2021/11/27 05:05:56;;;;;;;0.50;0.32;;;18.60;57.60;;;;;;6149350;22;88815;-64
2021/11/27 05:08:22;;;;;;;1.00;0.40;;;18.60;57.60;;;;;;6150003;22;87524;-64
2021/11/27 05:10:48;;;;;;;1.65;0.45;;;18.60;57.60;;;;;;6150157;22;87322;-70
2021/11/27 05:13:14;;;;;;;0.85;0.38;;;18.60;57.60;;;;;;6149710;22;89765;-67
2021/11/27 05:15:39;;;;;;;1.25;0.30;;;18.50;57.60;;;;;;6149670;22;88322;-68
2021/11/27 05:18:05;;;;;;;0.85;0.40;;;18.50;57.60;;;;;;6149713;22;87239;-63
2021/11/27 05:20:31;;;;;;;0.32;0.30;;;18.60;57.60;;;;;;6148037;22;90366;-66
2021/11/27 05:22:57;;;;;;;0.65;0.20;;;18.50;57.60;;;;;;6148582;22;88119;-66
2021/11/27 05:25:22;;;;;;;0.52;0.30;;;18.60;57.60;;;;;;6149288;22;87706;-66
2021/11/27 05:27:48;;;;;;;0.88;0.30;;;18.50;57.60;;;;;;6148547;22;88840;-72
2021/11/27 05:30:15;;;;;;;0.80;0.30;;;18.50;57.70;;;;;;6149442;22;87422;-66
2021/11/27 05:33:07;;;;;;;1.02;0.30;;;18.50;57.70;;;;;;6149554;22;87938;-64
2021/11/27 05:35:33;;;;;;;24.65;0.55;;;18.50;57.70;;;;;;6150192;22;87678;-64
2021/11/27 05:38:01;;;;;;;0.55;0.30;;;18.50;57.70;;;;;;6149928;22;87383;-65
2021/11/27 05:40:26;;;;;;;1.75;0.47;;;18.50;57.70;;;;;;6148602;22;87818;-71
2021/11/27 05:42:52;;;;;;;0.75;0.45;;;18.50;57.70;;;;;;6149840;22;88729;-65
2021/11/27 05:45:19;;;;;;;2.05;0.30;;;18.50;57.70;;;;;;6149774;22;87960;-72
2021/11/27 05:47:45;;;;;;;0.30;0.28;;;18.50;57.80;;;;;;6150247;22;87379;-65
2021/11/27 05:50:11;;;;;;;0.95;0.38;;;18.60;57.80;;;;;;6148455;22;87603;-63
2021/11/27 05:52:39;;;;;;;0.68;0.30;;;18.60;57.70;;;;;;6148057;22;88629;-73
2021/11/27 05:55:05;;;;;;;1.30;0.30;;;18.70;57.60;;;;;;6148465;22;89177;-65
2021/11/27 05:57:31;;;;;;;0.35;0.30;;;18.80;57.50;;;;;;6149141;22;87632;-70
2021/11/27 05:59:57;;;;;;;1.05;0.40;;;18.90;57.40;;;;;;6148795;22;89331;-73
2021/11/27 06:02:22;;;;;;;0.73;0.40;;;19.00;57.20;;;;;;6149806;22;87887;-65
2021/11/27 06:04:50;;;;;;;1.25;0.50;;;19.00;57.00;;;;;;6148788;22;87721;-70
2021/11/27 06:07:15;;;;;;;0.60;0.30;;;19.20;56.90;;;;;;6149915;22;87794;-70
2021/11/27 06:09:41;;;;;;;0.40;0.40;;;19.20;56.80;;;;;;6148706;22;86790;-64
2021/11/27 06:12:07;;;;;;;3.55;0.50;;;19.30;56.80;;;;;;6148018;22;91313;-69
2021/11/27 06:14:34;;;;;;;1.95;0.40;;;19.30;57.00;;;;;;6149486;22;87275;-65
2021/11/27 06:17:00;;;;;;;1.05;0.40;;;19.40;57.00;;;;;;6148410;22;88315;-64
2021/11/27 06:19:25;;;;;;;2.67;0.40;;;19.50;57.10;;;;;;6150310;22;87552;-64
2021/11/27 06:21:51;;;;;;;1.50;0.40;;;19.60;57.10;;;;;;6149190;22;87726;-67
2021/11/27 06:24:17;;;;;;;0.80;0.40;;;19.60;57.00;;;;;;6148917;22;87703;-71
2021/11/27 06:26:42;;;;;;;4.55;0.73;;;19.70;56.90;;;;;;6148281;22;87931;-66
2021/11/27 06:29:08;;;;;;;3.40;0.40;;;19.70;56.80;;;;;;6148247;22;87417;-65
2021/11/27 06:31:34;;;;;;;2.55;0.60;;;19.70;56.90;;;;;;6148282;22;89883;-64
2021/11/27 06:34:00;;;;;;;3.95;0.90;;;19.80;56.70;;;;;;6149617;22;87636;-66
2021/11/27 06:36:26;;;;;;;3.10;0.50;;;19.90;56.60;;;;;;6149080;22;88134;-71
2021/11/27 06:38:52;;;;;;;3.10;0.60;;;19.90;56.60;;;;;;6149736;22;87818;-67
2021/11/27 06:41:18;;;;;;;1.92;0.40;;;19.90;56.50;;;;;;6148431;22;89023;-70
2021/11/27 06:43:44;;;;;;;2.72;0.50;;;19.90;56.40;;;;;;6149695;22;88188;-65
2021/11/27 06:46:10;;;;;;;1.02;0.40;;;19.90;56.40;;;;;;6148398;22;87572;-69
2021/11/27 06:48:35;;;;;;;3.03;0.52;;;20.00;56.30;;;;;;6149658;22;87693;-64
2021/11/27 06:51:01;;;;;;;3.30;0.45;;;20.00;56.30;;;;;;6147920;22;87607;-65
2021/11/27 06:53:26;;;;;;;1.88;0.60;;;19.90;56.30;;;;;;6147999;22;88816;-64
2021/11/27 06:55:52;;;;;;;1.90;0.40;;;20.00;56.30;;;;;;6149424;22;87807;-66
2021/11/27 06:58:18;;;;;;;1.83;0.55;;;20.00;56.30;;;;;;6148834;22;88172;-67
2021/11/27 07:00:44;;;;;;;2.08;0.40;;;20.00;56.50;;;;;;6149137;22;89203;-67
2021/11/27 07:03:09;;;;;;;1.42;0.40;;;20.10;56.40;;;;;;6149557;22;87811;-68
2021/11/27 07:05:35;;;;;;;2.97;0.80;;;20.10;56.20;;;;;;6147237;22;88340;-70
2021/11/27 07:08:00;;;;;;;41.72;7.65;;;20.10;56.00;;;;;;6147851;22;89575;-69
2021/11/27 07:10:27;;;;;;;214.30;28.13;;;20.10;55.90;;;;;;6147874;22;91361;-70
2021/11/27 07:12:53;;;;;;;110.22;15.38;;;20.10;55.70;;;;;;6147668;22;87740;-70
2021/11/27 07:15:18;;;;;;;62.33;10.80;;;20.10;55.50;;;;;;6147700;22;87468;-68
2021/11/27 07:17:44;;;;;;;54.45;7.15;;;20.10;55.30;;;;;;6146884;22;89994;-64
2021/11/27 07:20:10;;;;;;;55.35;9.52;;;20.10;55.10;;;;;;6149446;22;87572;-70
2021/11/27 07:22:36;;;;;;;33.60;5.30;;;20.10;55.00;;;;;;6148851;22;88004;-66
2021/11/27 07:25:02;;;;;;;48.60;6.65;;;20.10;54.70;;;;;;6148814;22;88170;-69
2021/11/27 07:27:28;;;;;;;27.85;5.35;;;20.10;54.50;;;;;;6148615;22;87013;-69
2021/11/27 07:29:55;;;;;;;28.33;5.75;;;20.10;54.30;;;;;;6147544;22;89126;-70
2021/11/27 07:32:21;;;;;;;20.55;4.53;;;20.10;54.20;;;;;;6148542;22;87205;-71
2021/11/27 07:34:47;;;;;;;15.32;3.95;;;20.10;54.20;;;;;;6149204;22;87158;-73
2021/11/27 07:37:12;;;;;;;25.83;4.88;;;20.10;54.20;;;;;;6148439;22;87343;-69
2021/11/27 07:39:38;;;;;;;21.13;4.75;;;20.10;54.20;;;;;;6149100;22;90137;-69
2021/11/27 07:42:05;;;;;;;26.08;4.70;;;20.10;54.00;;;;;;6147929;22;88287;-73
2021/11/27 07:44:31;;;;;;;27.00;5.57;;;20.00;53.80;;;;;;6148583;22;87546;-73
2021/11/27 07:46:57;;;;;;;23.77;4.50;;;20.00;53.60;;;;;;6150313;22;86844;-69
2021/11/27 07:49:24;;;;;;;23.08;4.60;;;20.00;53.60;;;;;;6148800;22;88317;-70
2021/11/27 07:51:50;;;;;;;23.65;4.30;;;20.00;53.70;;;;;;6149035;22;87751;-74
2021/11/27 07:54:16;;;;;;;23.00;4.63;;;19.90;53.80;;;;;;6146134;22;88017;-70
2021/11/27 07:56:42;;;;;;;25.15;5.03;;;19.90;54.00;;;;;;6146915;22;91753;-69
2021/11/27 07:59:08;;;;;;;24.65;4.55;;;19.90;54.10;;;;;;6148556;22;88173;-69
2021/11/27 08:01:34;;;;;;;15.90;4.25;;;19.90;54.20;;;;;;6148200;22;87178;-69
2021/11/27 08:04:01;;;;;;;21.20;4.03;;;19.90;54.30;;;;;;6147897;22;87655;-74
2021/11/27 08:06:26;;;;;;;17.73;3.88;;;20.00;54.30;;;;;;6148298;22;87827;-70
2021/11/27 08:08:52;;;;;;;25.13;4.57;;;20.00;54.30;;;;;;6148341;22;87878;-70
2021/11/27 08:11:19;;;;;;;21.85;3.58;;;20.10;54.30;;;;;;6148317;22;87664;-71
2021/11/27 08:13:46;;;;;;;34.90;4.80;;;20.10;54.30;;;;;;6147268;22;87600;-70
2021/11/27 08:16:12;;;;;;;22.45;3.83;;;20.20;54.30;;;;;;6148218;22;87865;-73
2021/11/27 08:18:38;;;;;;;17.27;3.30;;;20.20;54.20;;;;;;6148214;22;88587;-69
2021/11/27 08:21:04;;;;;;;13.50;3.42;;;20.20;54.20;;;;;;6146905;22;91698;-69
2021/11/27 08:23:30;;;;;;;10.40;3.08;;;20.30;54.20;;;;;;6148626;22;87116;-70
2021/11/27 08:25:56;;;;;;;15.85;3.70;;;20.30;54.20;;;;;;6147475;22;89169;-70
2021/11/27 08:28:22;;;;;;;19.52;3.45;;;20.30;54.20;;;;;;6147587;22;88343;-71
2021/11/27 08:30:47;;;;;;;18.17;3.90;;;20.30;54.20;;;;;;6147265;22;88101;-70
2021/11/27 08:33:13;;;;;;;9.15;2.95;;;20.40;54.30;;;;;;6146672;22;88161;-69
2021/11/27 08:35:39;;;;;;;20.10;3.97;;;20.40;54.30;;;;;;6148916;22;86974;-72
2021/11/27 08:38:04;;;;;;;11.75;3.40;;;20.40;54.20;;;;;;6146890;22;91637;-69
2021/11/27 08:40:30;;;;;;;15.10;2.88;;;20.40;54.20;;;;;;6147991;22;87872;-72
2021/11/27 08:42:56;;;;;;;20.60;3.45;;;20.50;54.20;;;;;;6147901;22;88181;-73
2021/11/27 08:45:22;;;;;;;14.63;2.75;;;20.50;54.20;;;;;;6148281;22;87458;-71
2021/11/27 08:47:48;;;;;;;15.05;2.65;;;20.50;54.10;;;;;;6148789;22;88206;-69
2021/11/27 08:50:14;;;;;;;13.93;3.03;;;20.50;54.10;;;;;;6147098;22;87655;-70
2021/11/27 08:52:40;;;;;;;13.13;2.70;;;20.50;54.10;;;;;;6146029;22;86932;-70
2021/11/27 08:55:07;;;;;;;10.95;3.70;;;20.60;54.10;;;;;;6148756;22;87984;-71
2021/11/27 08:57:33;;;;;;;11.93;3.85;;;20.50;54.00;;;;;;6149221;22;87903;-70
2021/11/27 08:59:59;;;;;;;14.98;3.05;;;20.60;53.50;;;;;;6149553;22;87321;-71
2021/11/27 09:02:25;;;;;;;11.75;3.00;;;20.60;53.00;;;;;;6148164;22;87091;-71
2021/11/27 09:04:51;;;;;;;11.85;2.95;;;20.60;52.40;;;;;;6147954;22;88037;-73
2021/11/27 09:07:17;;;;;;;11.07;2.70;;;20.60;52.10;;;;;;6148905;22;90172;-68
2021/11/27 09:09:46;;;;;;;6.90;2.42;;;20.50;51.90;;;;;;6141075;22;88217;-67
2021/11/27 09:12:14;;;;;;;7.78;2.38;;;20.50;51.80;;;;;;6148467;22;87965;-71
2021/11/27 09:14:40;;;;;;;7.68;2.70;;;20.50;51.70;;;;;;6148162;22;90481;-72
2021/11/27 09:17:05;;;;;;;11.48;2.58;;;20.40;51.60;;;;;;6149156;22;88127;-70
2021/11/27 09:19:31;;;;;;;10.60;2.20;;;20.40;51.40;;;;;;6148686;22;87475;-71
2021/11/27 09:21:57;;;;;;;10.77;2.53;;;20.40;51.40;;;;;;6147710;22;87678;-72
2021/11/27 09:24:23;;;;;;;10.93;2.10;;;20.40;51.40;;;;;;6133152;22;87011;-66
2021/11/27 09:26:50;;;;;;;8.13;2.20;;;20.30;51.20;;;;;;6149400;22;87485;-73
2021/11/27 09:29:18;;;;;;;10.27;3.05;;;20.30;51.10;;;;;;6148277;22;87981;-69
2021/11/27 09:31:44;;;;;;;6.30;2.47;;;20.30;51.10;;;;;;6148664;22;88444;-70
2021/11/27 09:34:11;;;;;;;8.98;2.10;;;20.30;51.00;;;;;;6148215;22;87740;-73
2021/11/27 09:36:39;;;;;;;7.65;2.40;;;20.30;50.90;;;;;;6147640;22;88156;-71
2021/11/27 09:39:06;;;;;;;5.72;1.90;;;20.20;50.60;;;;;;6147157;22;91387;-71
2021/11/27 09:41:34;;;;;;;10.85;2.30;;;20.20;50.50;;;;;;6146908;22;87893;-67
2021/11/27 09:44:04;;;;;;;7.13;2.10;;;20.20;50.30;;;;;;6147492;22;89851;-69
2021/11/27 09:46:32;;;;;;;8.40;2.42;;;20.20;50.20;;;;;;6147918;22;89091;-72
2021/11/27 09:49:00;;;;;;;6.78;2.53;;;20.20;50.20;;;;;;6148328;22;87698;-73
2021/11/27 09:51:30;;;;;;;6.93;2.53;;;20.20;50.20;;;;;;6149906;22;87788;-68
2021/11/27 09:53:58;;;;;;;8.52;2.20;;;20.20;50.20;;;;;;6148914;22;87789;-63
2021/11/27 09:56:24;;;;;;;4.47;1.95;;;20.20;50.20;;;;;;6147923;22;93070;-71
2021/11/27 09:58:51;;;;;;;8.63;2.63;;;20.20;50.20;;;;;;6149374;22;87765;-64
2021/11/27 10:01:18;;;;;;;7.95;2.00;;;20.20;50.20;;;;;;6148802;22;87620;-64
2021/11/27 10:04:03;;;;;;;5.57;1.92;;;20.20;50.20;;;;;;6147567;22;90510;-66
2021/11/27 10:06:32;;;;;;;5.10;1.88;;;20.30;50.20;;;;;;6147779;22;91061;-67
2021/11/27 10:08:59;;;;;;;8.65;2.03;;;20.30;50.20;;;;;;6149265;22;87746;-67
2021/11/27 10:11:25;;;;;;;7.10;1.80;;;20.30;50.20;;;;;;6148050;22;87796;-69
2021/11/27 10:13:51;;;;;;;8.85;2.10;;;20.30;50.30;;;;;;6148545;22;86747;-69
2021/11/27 10:16:17;;;;;;;6.53;2.35;;;20.30;50.30;;;;;;6149694;22;88458;-69
2021/11/27 10:18:43;;;;;;;7.63;2.30;;;20.30;50.30;;;;;;6148287;22;88696;-68
2021/11/27 10:21:23;;;;;;;9.48;2.00;;;20.30;50.40;;;;;;6149298;22;88610;-69
2021/11/27 10:23:50;;;;;;;8.77;1.98;;;20.30;50.40;;;;;;6147426;22;87891;-69
2021/11/27 10:26:34;;;;;;;6.85;2.00;;;20.30;50.40;;;;;;6148447;22;89078;-69
2021/11/27 10:29:25;;;;;;;8.35;1.92;;;20.30;50.40;;;;;;6149017;22;87481;-69
2021/11/27 10:32:10;;;;;;;4.97;1.40;;;20.30;50.30;;;;;;6149745;22;87232;-69
2021/11/27 10:34:37;;;;;;;5.22;1.63;;;20.30;50.20;;;;;;6149611;22;87723;-69
2021/11/27 10:37:25;;;;;;;6.93;1.63;;;20.30;50.30;;;;;;6147594;22;89153;-69
2021/11/27 10:40:00;;;;;;;6.68;1.70;;;20.30;50.20;;;;;;6148408;22;89979;-68
2021/11/27 10:42:26;;;;;;;7.68;1.90;;;20.30;49.90;;;;;;6147063;22;87199;-69
2021/11/27 10:44:52;;;;;;;7.38;1.92;;;20.30;49.40;;;;;;6147885;22;87530;-69
2021/11/27 10:47:18;;;;;;;8.55;2.00;;;20.30;49.10;;;;;;6147817;22;88422;-70
2021/11/27 10:49:46;;;;;;;20.33;3.38;;;20.30;48.60;;;;;;6147957;22;89804;-67
2021/11/27 10:52:15;;;;;;;11.43;2.45;;;20.30;48.20;;;;;;6149826;22;87733;-70
2021/11/27 10:54:43;;;;;;;26.23;3.60;;;20.30;48.00;;;;;;6147564;22;91766;-70
2021/11/27 10:57:22;;;;;;;21.38;4.07;;;20.30;47.70;;;;;;6148028;22;89042;-71
2021/11/27 10:59:48;;;;;;;18.15;3.15;;;20.30;47.80;;;;;;6148537;22;86998;-70
2021/11/27 11:02:15;;;;;;;23.35;3.35;;;20.30;48.30;;;;;;6148115;22;87533;-70
2021/11/27 11:04:41;;;;;;;17.80;2.75;;;20.20;47.80;;;;;;6148592;22;90266;-70
2021/11/27 11:07:19;;;;;;;15.60;2.90;;;20.20;47.90;;;;;;6148895;22;88044;-70
2021/11/27 11:10:06;;;;;;;16.17;3.03;;;20.20;48.10;;;;;;6148202;22;88885;-70
2021/11/27 11:12:38;;;;;;;13.13;2.00;;;20.20;48.30;;;;;;6148972;22;88206;-69
2021/11/27 11:15:23;;;;;;;17.13;3.13;;;20.20;48.30;;;;;;6148374;22;87772;-70
2021/11/27 11:17:52;;;;;;;11.98;2.13;;;20.30;48.40;;;;;;6148916;22;88143;-69
2021/11/27 11:20:26;;;;;;;10.55;2.25;;;20.20;48.40;;;;;;6148402;22;89151;-70
2021/11/27 11:23:04;;;;;;;14.32;2.63;;;20.30;48.40;;;;;;6149649;22;87905;-67
2021/11/27 11:25:30;;;;;;;18.88;2.22;;;20.30;48.50;;;;;;6148384;22;89824;-68
2021/11/27 11:28:00;;;;;;;7.55;2.15;;;20.30;48.50;;;;;;6145072;22;90606;-70
2021/11/27 11:30:36;;;;;;;12.05;2.28;;;20.30;48.60;;;;;;6147686;22;88959;-70
2021/11/27 11:33:03;;;;;;;21.35;2.20;;;20.30;48.60;;;;;;6147642;22;87243;-68
2021/11/27 11:35:30;;;;;;;17.63;2.90;;;20.20;48.70;;;;;;6148370;22;90147;-68
2021/11/27 11:37:56;;;;;;;15.95;2.38;;;20.20;48.80;;;;;;6148653;22;88470;-69
2021/11/27 11:40:22;;;;;;;11.85;2.35;;;20.20;48.90;;;;;;6146951;22;89181;-69
2021/11/27 11:42:48;;;;;;;9.48;1.95;;;20.20;48.90;;;;;;6149893;22;87801;-68
2021/11/27 11:45:14;;;;;;;6.53;1.80;;;20.20;48.90;;;;;;6149131;22;87465;-70
2021/11/27 11:47:39;;;;;;;9.35;2.33;;;20.20;49.00;;;;;;6147695;22;90936;-69
2021/11/27 11:50:08;;;;;;;6.93;2.40;;;20.20;49.00;;;;;;6149118;22;87876;-69
2021/11/27 11:52:46;;;;;;;12.07;1.90;;;20.20;48.90;;;;;;6148817;22;87674;-68
2021/11/27 11:55:15;;;;;;;7.88;2.20;;;20.20;48.80;;;;;;6147964;22;88042;-68
2021/11/27 11:57:58;;;;;;;10.73;1.92;;;20.30;48.80;;;;;;6146600;22;91188;-70
2021/11/27 12:00:24;;;;;;;9.13;1.77;;;20.30;48.90;;;;;;6147816;22;87607;-69
2021/11/27 12:02:49;;;;;;;6.88;2.05;;;20.30;49.40;;;;;;6147942;22;88187;-68
2021/11/27 12:05:17;;;;;;;6.88;2.10;;;20.30;48.90;;;;;;6147715;22;90720;-69
2021/11/27 12:07:43;;;;;;;12.60;2.00;;;20.30;48.90;;;;;;6148497;22;88902;-69
2021/11/27 12:10:24;;;;;;;11.98;1.80;;;20.30;48.90;;;;;;6148860;22;87946;-69
2021/11/27 12:13:05;;;;;;;9.73;2.10;;;20.40;49.10;;;;;;6149405;22;87397;-68
2021/11/27 12:15:40;;;;;;;7.68;2.00;;;20.40;48.90;;;;;;6148424;22;87800;-69
2021/11/27 12:18:10;;;;;;;8.68;2.28;;;20.30;48.90;;;;;;6146460;22;91094;-68
2021/11/27 12:20:52;;;;;;;11.95;2.03;;;20.30;49.00;;;;;;6148047;22;88866;-69
2021/11/27 12:23:38;;;;;;;4.83;1.33;;;20.30;48.90;;;;;;6149680;22;87398;-68
2021/11/27 12:26:10;;;;;;;6.75;1.83;;;20.30;48.90;;;;;;6148375;22;87605;-67
2021/11/27 12:28:38;;;;;;;7.65;1.75;;;20.30;48.90;;;;;;6146373;22;89961;-69
2021/11/27 12:31:05;;;;;;;7.50;1.65;;;20.30;48.90;;;;;;6148417;22;88124;-69
2021/11/27 12:33:39;;;;;;;7.22;2.10;;;20.30;48.90;;;;;;6148456;22;87250;-69
2021/11/27 12:36:05;;;;;;;7.50;1.85;;;20.30;48.90;;;;;;6149112;22;89488;-68
2021/11/27 12:38:32;;;;;;;6.70;1.50;;;20.20;48.90;;;;;;6150070;22;87112;-67
2021/11/27 12:40:58;;;;;;;5.60;1.85;;;20.20;49.00;;;;;;6150055;22;87662;-68
2021/11/27 12:43:24;;;;;;;6.90;1.30;;;20.20;49.10;;;;;;6149692;22;88108;-69
2021/11/27 12:45:54;;;;;;;5.78;1.98;;;20.20;49.20;;;;;;6149873;22;87827;-69